createdAt,value
2022-10-10T00:00:19.037Z,96011.44
2022-10-10T00:05:20.861Z,96015.38
2022-10-10T00:10:22.722Z,96015.38
2022-10-10T00:15:24.645Z,96019.69
2022-10-10T00:20:26.620Z,96016.94
2022-10-10T00:25:28.822Z,96016.16
2022-10-10T00:30:31.380Z,96011.06
2022-10-10T00:35:33.078Z,96016.97
2022-10-10T00:40:35.189Z,96008.75
2022-10-10T00:45:40.606Z,96006.00
2022-10-10T00:51:11.446Z,96008.75
2022-10-10T00:56:16.287Z,96002.47
2022-10-10T01:01:19.316Z,96002.47
2022-10-10T01:06:21.023Z,95999.38
2022-10-10T01:11:38.118Z,95991.13
2022-10-10T01:16:49.005Z,95990.75
2022-10-10T01:22:28.265Z,95989.59
2022-10-10T01:27:38.531Z,95988.41
2022-10-10T01:33:08.849Z,95974.34
2022-10-10T01:38:31.622Z,95970.00
2022-10-10T01:43:35.295Z,95965.72
2022-10-10T01:48:39.693Z,95970.44
2022-10-10T01:54:14.800Z,95955.97
2022-10-10T01:59:22.520Z,95958.69
2022-10-10T02:04:49.175Z,95955.16
2022-10-10T02:09:52.569Z,95945.38
2022-10-10T02:14:58.736Z,95942.66
2022-10-10T02:20:00.657Z,95946.16
2022-10-10T02:25:02.712Z,95937.16
2022-10-10T02:30:06.085Z,95938.72
2022-10-10T02:35:14.086Z,95941.09
2022-10-10T02:40:20.766Z,95943.84
2022-10-10T02:45:23.604Z,95943.84
2022-10-10T02:50:26.431Z,95951.66
2022-10-10T02:55:28.125Z,95956.75
2022-10-10T03:00:30.350Z,95945.78
2022-10-10T03:05:32.355Z,95938.78
2022-10-10T03:10:34.902Z,95936.41
2022-10-10T03:15:37.746Z,95936.03
2022-10-10T03:20:39.403Z,95937.59
2022-10-10T03:25:45.300Z,95944.66
2022-10-10T03:30:48.166Z,95940.75
2022-10-10T03:35:50.262Z,95942.31
2022-10-10T03:40:52.421Z,95933.72
2022-10-10T03:45:54.218Z,95930.63
2022-10-10T03:50:55.865Z,95928.28
2022-10-10T03:55:57.520Z,95936.09
2022-10-10T04:01:02.258Z,95931.41
2022-10-10T04:06:04.099Z,95938.88
2022-10-10T04:11:05.836Z,95926.31
2022-10-10T04:16:07.676Z,95929.88
2022-10-10T04:21:09.952Z,95918.53
2022-10-10T04:26:11.622Z,95925.56
2022-10-10T04:31:13.503Z,95932.25
2022-10-10T04:36:15.159Z,95932.63
2022-10-10T04:41:16.878Z,95930.66
2022-10-10T04:46:18.502Z,95931.84
2022-10-10T04:51:20.196Z,95924.00
2022-10-10T04:56:21.812Z,95927.53
2022-10-10T05:01:23.872Z,95918.56
2022-10-10T05:06:25.614Z,95928.34
2022-10-10T05:11:28.342Z,95934.19
2022-10-10T05:16:30.632Z,95940.88
2022-10-10T05:21:32.299Z,95948.28
2022-10-10T05:26:42.241Z,95936.16
2022-10-10T05:31:45.357Z,95937.34
2022-10-10T05:36:47.289Z,95944.78
2022-10-10T05:41:51.123Z,95945.16
2022-10-10T05:46:53.224Z,95945.94
2022-10-10T05:51:54.932Z,95951.03
2022-10-10T05:56:56.787Z,95952.56
2022-10-10T06:01:58.443Z,95963.53
2022-10-10T06:07:00.096Z,95961.97
2022-10-10T06:12:01.833Z,95954.13
2022-10-10T06:17:03.473Z,95960.00
2022-10-10T06:22:05.416Z,95958.06
2022-10-10T06:27:07.063Z,95966.63
2022-10-10T06:32:08.904Z,95961.53
2022-10-10T06:37:12.343Z,95961.97
2022-10-10T06:42:13.976Z,95964.69
2022-10-10T06:47:16.280Z,95971.72
2022-10-10T06:52:17.982Z,95983.44
2022-10-10T06:57:19.666Z,95985.38
2022-10-10T07:02:21.421Z,95992.00
2022-10-10T07:07:25.233Z,95993.56
2022-10-10T07:12:31.609Z,96000.56
2022-10-10T07:17:35.953Z,96002.88
2022-10-10T07:22:38.231Z,96007.53
2022-10-10T07:27:40.079Z,96002.00
2022-10-10T07:32:41.960Z,95999.97
2022-10-10T07:37:43.624Z,96011.25
2022-10-10T07:42:45.397Z,96009.19
2022-10-10T07:47:47.189Z,96017.38
2022-10-10T07:52:49.054Z,96010.22
2022-10-10T07:57:53.385Z,96011.72
2022-10-10T08:02:55.554Z,96006.50
2022-10-10T08:07:57.373Z,96009.91
2022-10-10T08:12:59.184Z,96012.53
2022-10-10T08:18:00.838Z,96005.34
2022-10-10T08:23:02.526Z,96010.34
2022-10-10T08:28:04.952Z,96013.41
2022-10-10T08:33:06.791Z,96014.22
2022-10-10T08:38:09.009Z,96023.25
2022-10-10T08:43:21.773Z,96029.56
2022-10-10T08:48:28.627Z,96023.69
2022-10-10T08:53:41.598Z,96032.38
2022-10-10T08:58:47.526Z,96034.78
2022-10-10T09:03:57.438Z,96030.47
2022-10-10T09:09:37.123Z,96035.94
2022-10-10T09:14:49.027Z,96027.66
2022-10-10T09:20:04.140Z,96031.09
2022-10-10T09:25:15.783Z,96032.59
2022-10-10T09:30:20.195Z,96045.47
2022-10-10T09:35:25.417Z,96040.31
2022-10-10T09:40:34.497Z,96044.91
2022-10-10T09:45:43.535Z,96051.81
2022-10-10T09:50:47.616Z,96043.44
2022-10-10T09:55:50.871Z,96055.13
2022-10-10T10:00:53.918Z,96047.50
2022-10-10T10:06:02.419Z,96050.88
2022-10-10T10:11:05.112Z,96046.38
2022-10-10T10:16:12.880Z,96041.78
2022-10-10T10:21:26.466Z,96034.38
2022-10-10T10:26:47.778Z,96026.66
2022-10-10T10:32:13.940Z,96035.13
2022-10-10T10:37:47.204Z,96046.19
2022-10-10T10:43:02.724Z,96039.59
2022-10-10T10:48:26.643Z,96042.50
2022-10-10T10:53:54.668Z,96032.13
2022-10-10T10:59:30.377Z,96038.28
2022-10-10T11:05:25.051Z,96040.47
2022-10-10T11:10:19.675Z,96034.75
2022-10-10T11:15:30.808Z,96021.47
2022-10-10T11:20:51.828Z,96015.59
2022-10-10T11:26:20.474Z,96020.81
2022-10-10T11:31:36.961Z,96022.16
2022-10-10T11:36:42.061Z,96022.34
2022-10-10T11:41:59.176Z,96019.00
2022-10-10T11:47:22.063Z,96015.53
2022-10-10T11:52:39.540Z,96008.66
2022-10-10T11:57:54.138Z,96014.84
2022-10-10T12:02:57.367Z,96010.00
2022-10-10T12:08:07.318Z,96009.16
2022-10-10T12:13:27.354Z,96011.84
2022-10-10T12:18:44.844Z,96005.97
2022-10-10T12:23:49.345Z,96005.19
2022-10-10T12:29:01.960Z,96008.63
2022-10-10T12:34:13.947Z,95998.63
2022-10-10T12:39:22.319Z,95999.63
2022-10-10T12:44:45.925Z,95998.75
2022-10-10T12:50:05.514Z,96001.00
2022-10-10T12:55:21.273Z,95996.50
2022-10-10T13:00:24.519Z,95997.88
2022-10-10T13:05:31.864Z,95995.59
2022-10-10T13:10:33.584Z,95988.75
2022-10-10T13:15:36.319Z,96003.19
2022-10-10T13:20:40.503Z,95995.56
2022-10-10T13:25:45.778Z,95998.69
2022-10-10T13:30:51.347Z,95990.81
2022-10-10T13:36:03.675Z,96000.31
2022-10-10T13:41:06.228Z,96003.09
2022-10-10T13:46:22.320Z,95996.75
2022-10-10T13:51:45.516Z,95999.97
2022-10-10T13:56:47.217Z,95994.00
2022-10-10T14:01:58.712Z,95989.25
2022-10-10T14:07:06.155Z,95992.03
2022-10-10T14:12:16.991Z,95999.09
2022-10-10T14:17:18.988Z,95999.09
2022-10-10T14:22:22.003Z,95998.69
2022-10-10T14:27:26.356Z,95999.88
2022-10-10T14:32:28.093Z,95988.47
2022-10-10T14:37:30.958Z,95989.25
2022-10-10T14:42:35.599Z,96003.09
2022-10-10T14:47:37.238Z,95987.69
2022-10-10T14:52:38.932Z,95992.03
2022-10-10T14:57:42.830Z,96000.75
2022-10-10T15:02:45.904Z,95998.09
2022-10-10T15:07:50.532Z,95995.00
2022-10-10T15:12:52.763Z,96000.59
2022-10-10T15:17:57.462Z,95995.53
2022-10-10T15:23:01.657Z,95998.38
2022-10-10T15:28:04.812Z,95993.69
2022-10-10T15:33:06.477Z,96009.63
2022-10-10T15:38:08.064Z,96001.41
2022-10-10T15:43:09.692Z,96012.56
2022-10-10T15:48:11.379Z,96014.22
2022-10-10T15:53:13.018Z,96020.59
2022-10-10T15:58:16.094Z,96022.22
2022-10-10T16:03:17.758Z,96022.22
2022-10-10T16:08:19.453Z,96021.38
2022-10-10T16:13:21.119Z,96019.41
2022-10-10T16:18:23.151Z,96022.59
2022-10-10T16:23:25.977Z,96024.69
2022-10-10T16:28:27.721Z,96023.97
2022-10-10T16:33:32.878Z,96030.03
2022-10-10T16:38:34.680Z,96035.31
2022-10-10T16:43:37.679Z,96036.25
2022-10-10T16:48:41.403Z,96039.19
2022-10-10T16:53:43.962Z,96046.47
2022-10-10T16:58:45.946Z,96050.16
2022-10-10T17:03:49.419Z,96047.56
2022-10-10T17:08:56.090Z,96068.28
2022-10-10T17:13:58.462Z,96072.41
2022-10-10T17:19:01.323Z,96079.63
2022-10-10T17:24:03.297Z,96080.56
2022-10-10T17:29:04.849Z,96090.56
2022-10-10T17:34:09.160Z,96087.16
2022-10-10T17:39:10.981Z,96092.03
2022-10-10T17:44:13.498Z,96106.78
2022-10-10T17:49:15.200Z,96096.31
2022-10-10T17:54:16.872Z,96102.75
2022-10-10T17:59:18.718Z,96105.25
2022-10-10T18:04:20.396Z,96108.13
2022-10-10T18:09:22.037Z,96103.09
2022-10-10T18:14:24.141Z,96111.88
2022-10-10T18:19:27.029Z,96104.50
2022-10-10T18:24:29.171Z,96109.72
2022-10-10T18:29:31.021Z,96112.97
2022-10-10T18:34:32.807Z,96117.38
2022-10-10T18:39:36.028Z,96120.59
2022-10-10T18:44:38.593Z,96123.44
2022-10-10T18:49:40.404Z,96119.59
2022-10-10T18:54:42.219Z,96129.91
2022-10-10T18:59:43.880Z,96123.31
2022-10-10T19:04:48.044Z,96123.00
2022-10-10T19:09:49.821Z,96118.75
2022-10-10T19:14:51.892Z,96117.25
2022-10-10T19:19:53.540Z,96127.16
2022-10-10T19:24:58.818Z,96116.59
2022-10-10T19:30:00.518Z,96118.63
2022-10-10T19:35:02.409Z,96115.13
2022-10-10T19:40:04.551Z,96134.47
2022-10-10T19:45:06.878Z,96131.00
2022-10-10T19:50:08.981Z,96131.81
2022-10-10T19:55:10.835Z,96135.41
2022-10-10T20:00:15.679Z,96137.44
2022-10-10T20:05:17.655Z,96143.00
2022-10-10T20:10:21.876Z,96150.53
2022-10-10T20:15:23.933Z,96160.03
2022-10-10T20:20:26.675Z,96157.34
2022-10-10T20:25:28.371Z,96167.97
2022-10-10T20:30:30.011Z,96175.09
2022-10-10T20:35:34.332Z,96169.59
2022-10-10T20:40:38.814Z,96176.72
2022-10-10T20:45:42.729Z,96174.81
2022-10-10T20:50:44.341Z,96174.06
2022-10-10T20:55:46.074Z,96176.44
2022-10-10T21:00:47.804Z,96178.03
2022-10-10T21:05:49.581Z,96187.91
2022-10-10T21:10:51.204Z,96182.78
2022-10-10T21:15:52.982Z,96180.09
2022-10-10T21:20:59.956Z,96188.75
2022-10-10T21:26:07.184Z,96186.44
2022-10-10T21:31:14.762Z,96182.53
2022-10-10T21:36:18.195Z,96179.00
2022-10-10T21:41:21.232Z,96188.06
2022-10-10T21:46:25.468Z,96188.50
2022-10-10T21:51:27.182Z,96196.38
2022-10-10T21:56:28.778Z,96197.13
2022-10-10T22:01:33.195Z,96196.75
2022-10-10T22:06:35.130Z,96202.69
2022-10-10T22:11:36.936Z,96206.63
2022-10-10T22:16:38.606Z,96205.84
2022-10-10T22:21:40.280Z,96199.97
2022-10-10T22:26:42.385Z,96205.91
2022-10-10T22:31:44.068Z,96199.19
2022-10-10T22:36:46.719Z,96193.69
2022-10-10T22:41:48.313Z,96198.03
2022-10-10T22:46:51.712Z,96210.25
2022-10-10T22:51:53.348Z,96206.34
2022-10-10T22:56:55.278Z,96198.47
2022-10-10T23:01:56.855Z,96210.31
2022-10-10T23:06:58.983Z,96211.13
2022-10-10T23:12:00.604Z,96215.88
2022-10-10T23:17:02.199Z,96221.38
2022-10-10T23:22:05.235Z,96219.78
2022-10-10T23:27:07.408Z,96234.31
2022-10-10T23:32:09.088Z,96254.78
2022-10-10T23:37:10.707Z,96252.84
2022-10-10T23:42:12.335Z,96254.44
2022-10-10T23:47:13.935Z,96255.66
2022-10-10T23:52:15.911Z,96257.66
2022-10-10T23:57:17.584Z,96256.09
